createdAt,value
2022-11-27T00:00:08.581Z,8.23
2022-11-27T00:05:10.259Z,9.90
2022-11-27T00:10:12.468Z,7.85
2022-11-27T00:15:17.203Z,6.43
2022-11-27T00:20:19.142Z,4.97
2022-11-27T00:25:20.964Z,6.35
2022-11-27T00:30:22.929Z,10.20
2022-11-27T00:35:24.713Z,4.43
2022-11-27T00:40:26.393Z,7.05
2022-11-27T00:45:28.554Z,7.40
2022-11-27T00:50:30.530Z,6.75
2022-11-27T00:55:32.206Z,7.20
2022-11-27T01:00:33.959Z,7.57
2022-11-27T01:05:38.773Z,5.10
2022-11-27T01:10:40.464Z,6.05
2022-11-27T01:15:42.239Z,5.28
2022-11-27T01:20:43.946Z,4.60
2022-11-27T01:25:45.771Z,4.80
2022-11-27T01:30:47.585Z,4.07
2022-11-27T01:35:57.283Z,5.13
2022-11-27T01:41:12.912Z,4.90
2022-11-27T01:46:40.389Z,5.30
2022-11-27T01:52:02.639Z,4.30
2022-11-27T01:57:09.997Z,5.80
2022-11-27T02:02:11.908Z,5.40
2022-11-27T02:07:13.868Z,3.85
2022-11-27T02:12:32.485Z,4.90
2022-11-27T02:17:55.145Z,4.00
2022-11-27T02:23:06.171Z,4.90
2022-11-27T02:28:16.958Z,4.93
2022-11-27T02:33:21.171Z,4.10
2022-11-27T02:38:39.997Z,4.30
2022-11-27T02:43:48.219Z,4.75
2022-11-27T02:49:01.384Z,4.70
2022-11-27T02:54:07.387Z,4.30
2022-11-27T02:59:12.589Z,4.00
2022-11-27T03:04:19.032Z,6.10
2022-11-27T03:09:35.403Z,6.68
2022-11-27T03:14:39.040Z,5.95
2022-11-27T03:19:54.903Z,6.80
2022-11-27T03:24:56.861Z,4.28
2022-11-27T03:30:01.270Z,5.77
2022-11-27T03:35:03.935Z,4.87
2022-11-27T03:40:07.002Z,3.55
2022-11-27T03:45:22.000Z,4.73
2022-11-27T03:50:42.232Z,6.20
2022-11-27T03:56:10.250Z,4.15
2022-11-27T04:01:16.260Z,3.65
2022-11-27T04:06:18.042Z,3.83
2022-11-27T04:11:19.782Z,4.53
2022-11-27T04:16:21.611Z,4.82
2022-11-27T04:21:23.587Z,3.97
2022-11-27T04:26:25.350Z,4.03
2022-11-27T04:31:27.129Z,3.43
2022-11-27T04:36:28.839Z,3.67
2022-11-27T04:41:30.506Z,3.85
2022-11-27T04:46:33.277Z,3.83
2022-11-27T04:51:35.046Z,5.55
2022-11-27T04:56:36.779Z,5.13
2022-11-27T05:01:38.450Z,3.65
2022-11-27T05:06:40.157Z,4.68
2022-11-27T05:11:41.873Z,3.63
2022-11-27T05:16:47.927Z,3.65
2022-11-27T05:21:50.343Z,3.58
2022-11-27T05:26:52.799Z,3.10
2022-11-27T05:31:54.594Z,4.50
2022-11-27T05:36:56.342Z,2.43
2022-11-27T05:41:58.050Z,3.25
2022-11-27T05:46:59.831Z,4.88
2022-11-27T05:52:01.537Z,3.50
2022-11-27T05:57:03.262Z,2.72
2022-11-27T06:02:05.020Z,2.87
2022-11-27T06:07:06.822Z,3.92
2022-11-27T06:12:08.698Z,3.00
2022-11-27T06:17:10.408Z,3.50
2022-11-27T06:22:12.215Z,2.60
2022-11-27T06:27:13.966Z,4.13
2022-11-27T06:32:15.723Z,3.05
2022-11-27T06:37:17.415Z,4.27
2022-11-27T06:42:19.145Z,5.93
2022-11-27T06:47:20.978Z,4.47
2022-11-27T06:52:22.942Z,4.53
2022-11-27T06:57:24.642Z,4.70
2022-11-27T07:02:26.435Z,4.30
2022-11-27T07:07:28.233Z,3.20
2022-11-27T07:12:29.951Z,3.20
2022-11-27T07:17:31.635Z,3.30
2022-11-27T07:22:33.481Z,4.43
2022-11-27T07:27:35.201Z,4.20
2022-11-27T07:32:36.963Z,3.63
2022-11-27T07:37:39.054Z,4.00
2022-11-27T07:42:40.841Z,3.63
2022-11-27T07:47:42.638Z,4.63
2022-11-27T07:52:44.316Z,5.97
2022-11-27T07:57:46.025Z,3.35
2022-11-27T08:02:47.699Z,4.27
2022-11-27T08:07:49.356Z,4.00
2022-11-27T08:12:51.055Z,3.63
2022-11-27T08:17:52.805Z,4.43
2022-11-27T08:22:59.507Z,6.68
2022-11-27T08:28:04.330Z,4.97
2022-11-27T08:33:06.063Z,3.83
2022-11-27T08:38:07.763Z,3.78
2022-11-27T08:43:09.526Z,2.63
2022-11-27T08:48:11.218Z,2.67
2022-11-27T08:53:13.328Z,2.97
2022-11-27T08:58:15.333Z,3.67
2022-11-27T09:03:17.072Z,4.50
2022-11-27T09:08:18.753Z,4.00
2022-11-27T09:13:20.467Z,3.15
2022-11-27T09:18:22.160Z,3.65
2022-11-27T09:23:23.856Z,3.40
2022-11-27T09:28:30.988Z,2.92
2022-11-27T09:33:35.521Z,3.15
2022-11-27T09:38:38.156Z,3.55
2022-11-27T09:43:53.440Z,4.78
2022-11-27T09:48:58.846Z,3.50
2022-11-27T09:54:18.482Z,4.28
2022-11-27T09:59:23.079Z,4.07
2022-11-27T10:04:25.389Z,3.73
2022-11-27T10:09:48.192Z,3.05
2022-11-27T10:14:58.874Z,7.10
2022-11-27T10:20:21.534Z,3.17
2022-11-27T10:25:44.903Z,2.80
2022-11-27T10:31:02.809Z,3.72
2022-11-27T10:36:10.702Z,3.20
2022-11-27T10:46:45.348Z,3.78
2022-11-27T10:51:47.136Z,2.80
2022-11-27T10:57:16.081Z,2.80
2022-11-27T11:02:47.857Z,2.47
2022-11-27T11:08:16.307Z,4.82
2022-11-27T11:13:26.923Z,2.90
2022-11-27T11:18:43.009Z,7.38
2022-11-27T11:23:58.889Z,2.70
2022-11-27T11:29:04.679Z,5.68
2022-11-27T11:34:19.950Z,2.70
2022-11-27T11:39:27.678Z,2.20
2022-11-27T11:44:40.055Z,2.00
2022-11-27T11:49:41.983Z,3.40
2022-11-27T11:54:59.218Z,4.05
2022-11-27T12:00:14.546Z,3.15
2022-11-27T12:05:22.285Z,3.50
2022-11-27T12:10:50.251Z,3.88
2022-11-27T12:16:09.126Z,4.60
2022-11-27T12:21:36.711Z,2.95
2022-11-27T12:27:00.325Z,2.70
2022-11-27T12:32:08.146Z,3.97
2022-11-27T12:37:50.725Z,5.20
2022-11-27T12:43:00.520Z,3.40
2022-11-27T12:48:14.493Z,2.53
2022-11-27T12:53:27.856Z,2.92
2022-11-27T12:58:36.593Z,5.97
2022-11-27T13:04:00.095Z,2.00
2022-11-27T13:09:18.169Z,2.63
2022-11-27T13:14:23.509Z,1.90
2022-11-27T13:19:57.774Z,2.20
2022-11-27T13:25:02.001Z,2.40
2022-11-27T13:30:07.362Z,3.00
2022-11-27T13:35:52.146Z,2.15
2022-11-27T13:40:56.112Z,2.60
2022-11-27T13:46:07.768Z,2.97
2022-11-27T13:51:10.659Z,1.67
2022-11-27T13:56:13.205Z,2.28
2022-11-27T14:01:20.412Z,2.58
2022-11-27T14:06:22.284Z,3.83
2022-11-27T14:11:33.206Z,3.17
2022-11-27T14:16:36.821Z,1.83
2022-11-27T14:21:42.548Z,2.20
2022-11-27T14:26:44.257Z,2.25
2022-11-27T14:31:46.194Z,2.90
2022-11-27T14:36:52.334Z,2.42
2022-11-27T14:42:02.111Z,2.97
2022-11-27T14:47:06.591Z,2.77
2022-11-27T14:52:13.325Z,6.20
2022-11-27T14:57:26.042Z,5.53
2022-11-27T15:02:29.482Z,8.20
2022-11-27T15:07:36.578Z,9.20
2022-11-27T15:12:46.904Z,5.32
2022-11-27T15:18:00.376Z,6.47
2022-11-27T15:23:02.782Z,3.90
2022-11-27T15:28:29.164Z,5.97
2022-11-27T15:33:34.567Z,3.78
2022-11-27T15:38:36.359Z,4.78
2022-11-27T15:43:38.089Z,8.10
2022-11-27T15:48:40.033Z,4.85
2022-11-27T15:53:41.778Z,4.13
2022-11-27T15:58:43.695Z,3.97
2022-11-27T16:03:45.465Z,5.30
2022-11-27T16:08:47.191Z,3.77
2022-11-27T16:13:48.980Z,4.70
2022-11-27T16:18:50.733Z,6.35
2022-11-27T16:23:56.316Z,5.20
2022-11-27T16:28:58.517Z,7.05
2022-11-27T16:34:00.262Z,6.37
2022-11-27T16:39:02.104Z,5.82
2022-11-27T16:44:10.879Z,4.40
2022-11-27T16:49:13.235Z,6.37
2022-11-27T16:54:15.034Z,7.00
2022-11-27T16:59:16.726Z,6.45
2022-11-27T17:04:20.128Z,12.18
2022-11-27T17:09:21.884Z,10.18
2022-11-27T17:14:24.199Z,8.17
2022-11-27T17:19:26.022Z,11.35
2022-11-27T17:24:27.786Z,9.07
2022-11-27T17:29:33.530Z,9.13
2022-11-27T17:34:35.655Z,8.35
2022-11-27T17:39:37.336Z,6.25
2022-11-27T17:44:39.057Z,7.63
2022-11-27T17:49:41.028Z,7.90
2022-11-27T17:54:43.053Z,10.87
2022-11-27T17:59:44.769Z,14.40
2022-11-27T18:04:46.495Z,15.73
2022-11-27T18:09:48.206Z,12.40
2022-11-27T18:14:57.870Z,11.27
2022-11-27T18:20:02.661Z,7.82
2022-11-27T18:25:04.879Z,9.57
2022-11-27T18:30:07.267Z,8.60
2022-11-27T18:35:10.194Z,8.20
2022-11-27T18:40:12.282Z,10.15
2022-11-27T18:45:31.731Z,11.77
2022-11-27T18:50:35.647Z,11.48
2022-11-27T18:55:39.229Z,10.85
2022-11-27T19:00:40.899Z,12.73
2022-11-27T19:05:42.560Z,10.57
2022-11-27T19:10:44.238Z,10.23
2022-11-27T19:15:46.419Z,8.80
2022-11-27T19:20:48.304Z,11.77
2022-11-27T19:25:50.062Z,8.73
2022-11-27T19:30:51.822Z,12.18
2022-11-27T19:35:59.732Z,7.85
2022-11-27T19:41:01.562Z,21.87
2022-11-27T19:46:11.818Z,12.73
2022-11-27T19:51:13.694Z,9.73
2022-11-27T19:56:15.519Z,9.37
2022-11-27T20:01:19.020Z,9.15
2022-11-27T20:06:22.862Z,9.90
2022-11-27T20:11:25.949Z,7.15
2022-11-27T20:16:30.392Z,7.87
2022-11-27T20:21:32.307Z,8.65
2022-11-27T20:26:39.678Z,7.20
2022-11-27T20:31:44.326Z,8.23
2022-11-27T20:36:46.687Z,10.63
2022-11-27T20:41:49.701Z,8.85
2022-11-27T20:46:51.600Z,11.32
2022-11-27T20:51:53.293Z,10.20
2022-11-27T20:56:55.037Z,8.23
2022-11-27T21:01:56.784Z,8.47
2022-11-27T21:06:58.543Z,9.80
2022-11-27T21:12:00.596Z,8.73
2022-11-27T21:17:05.048Z,10.60
2022-11-27T21:22:07.827Z,9.75
2022-11-27T21:27:10.250Z,9.45
2022-11-27T21:32:12.924Z,9.48
2022-11-27T21:37:15.570Z,8.40
2022-11-27T21:42:17.537Z,9.77
2022-11-27T21:47:19.523Z,10.60
2022-11-27T21:52:22.292Z,8.73
2022-11-27T21:57:24.104Z,10.30
2022-11-27T22:02:26.012Z,7.17
2022-11-27T22:07:27.864Z,9.98
2022-11-27T22:12:29.625Z,10.03
2022-11-27T22:17:31.422Z,9.30
2022-11-27T22:22:33.151Z,12.40
2022-11-27T22:27:34.866Z,10.70
2022-11-27T22:32:37.195Z,9.70
2022-11-27T22:37:39.326Z,11.15
2022-11-27T22:42:41.720Z,12.20
2022-11-27T22:47:44.157Z,10.93
2022-11-27T22:52:45.907Z,12.18
2022-11-27T22:57:47.843Z,12.32
2022-11-27T23:02:49.715Z,10.07
2022-11-27T23:07:51.617Z,9.55
2022-11-27T23:12:53.348Z,8.93
2022-11-27T23:17:55.113Z,14.15
2022-11-27T23:22:56.804Z,16.17
2022-11-27T23:27:58.529Z,15.57
2022-11-27T23:33:00.275Z,12.30
2022-11-27T23:38:02.141Z,13.77
2022-11-27T23:43:03.813Z,10.05
2022-11-27T23:48:05.615Z,9.50
2022-11-27T23:53:07.452Z,12.40
2022-11-27T23:58:09.151Z,9.85
